DTTA/TUN METAR and TAF weather

Enter ICAO airport designator
Station Type Date Time Source
DTTA METAR 2020/11/27 14:30 UTC NOAA

DTTA 271430Z VRB06KT 9999 SCT023TCU SCT033 18/13 Q1014


Station Type Date Time Source
DTTA Decoded METAR 2020/11/27 14:30 UTC NOAA

Tunis-Carthage, Tunisia (DTTA) 36-50N 010-14E 4M
Nov 27, 2020 - 09:30 AM EST / 2020.11.27 1430 UTC
Wind: Variable at 7 MPH (6 KT):0
Visibility: greater than 7 mile(s):0
Sky conditions: partly cloudy
Weather: Towering cumulus clouds observed
Temperature: 64 F (18 C)
Dew Point: 55 F (13 C)
Relative Humidity: 72%
Pressure (altimeter): 29.94 in. Hg (1014 hPa)
ob: DTTA 271430Z VRB06KT 9999 SCT023TCU SCT033 18/13 Q1014
cycle: 14

Station Type Date Time Source
DTTA TAF 2020/11/27 12:45 UTC NOAA

TAF DTTA 271100Z 2712/2812 14012KT 8000 SCT023 FEW026 PROB40
TEMPO 2712/2716 -RA SCT023TCU FEW026CB
TEMPO 2721/2806 14025G35KT PROB30
TEMPO 2803/2809 -TSRA SCT026TCU FEW030CB
BECMG 2806/2808 19020G33KT

Example: see airport list